Kimble County Airport
KJCT : now visible

Airfield :











YOU CAN JOIN US ON...

 
LOGIN :

Register | Disclaimer

   EN    FR    IT 

 









Legend :    VFR   Marginal VFR   IFR   Intensive IFR   Very Intensive IFR
Visi :
Ceiling :
>= 8 km
>= 3000ft
5 to 8 km
1000 to 3000 ft
1500m to 5 km
500 to 1000 ft
800 to 1500m
200 to 500 ft
< 800m
< 200 ft
Symbols :   Thunderstorms  Fog  Heavy snow  Heavy precipitations  Wind > 20 kt







- Airport Elevation : 1749 ft


KJCT - Kimble County

CURRENT METAR :
  • 181651Z AUTO 34013G24KT 10SM SCT030 BKN036 BKN100 19/12 A2996 RMK AO2 PK WND 32028/1553 SLP120 T01890117

EXPIRED METARs :
  • 181551Z AUTO 33022G28KT 10SM BKN030 OVC095 17/11 A2994 RMK AO2 PK WND 33028/1551 PRESRR SLP113 T01720111
  • 181451Z AUTO 33008KT 10SM SCT080 OVC095 16/10 A2988 RMK AO2 SLP093 T01560100 51029

TAF KJCT
Valid from the 18 at 12:00 until the 19 at 12:00 UTC


181120Z 1812/1912 29009KT P6SM SCT250
FM181500 34014G22KT P6SM SCT250
FM181700 35021G30KT P6SM FEW250
FM190100 34004KT P6SM SKC
KZHU FIR / North America



MET'MAP, your aeronautical weather chart ! - Copyright ORBIFLY December 2007 - Disclaimer

ORBIFLY MET'MAP TEAM :

Programming & Development : Alexandra Zaïnal
Concept & Development : Baudouin d'Aumeries
Co-Development & Prog : Marc-Olivier Méhu
Technical & hardware support : Manuel Goepfert

Contact : metmap@orbifly.com




SOURCES & CREDITS :

   NOAA       Earth
Advisory